Time;durP1;ratioP1;P1;durP2;ratioP2;P2;SDS_P1;SDS_P2;PMS_P1;PMS_P2;Temp;Humidity;BMP_temperature;BMP_pressure;BME280_temperature;BME280_humidity;BME280_pressure;Samples;Min_cycle;Max_cycle;Signal;HPM_P1;HPM_P2
2022/03/31 00:02:11;;;;;;;10.10;5.77;;;;;7.30;99575.00;;;;5046355;28;20248;-69
2022/03/31 00:04:59;;;;;;;12.50;6.57;;;;;7.20;99573.00;;;;5031167;28;20307;-67
2022/03/31 00:07:49;;;;;;;11.13;6.77;;;;;7.20;99574.00;;;;5046959;28;20748;-70
2022/03/31 00:10:38;;;;;;;12.87;7.07;;;;;7.20;99576.00;;;;5046745;28;20310;-71
2022/03/31 00:13:26;;;;;;;13.77;6.77;;;;;7.10;99567.00;;;;5047005;28;20266;-67
2022/03/31 00:16:13;;;;;;;13.67;6.83;;;;;7.20;99580.00;;;;5046416;28;20236;-69
2022/03/31 00:18:59;;;;;;;13.63;6.97;;;;;7.20;99561.00;;;;5026485;28;20744;-69
2022/03/31 00:32:52;;;;;;;13.30;6.00;;;;;7.10;99560.00;;;;5028643;28;20236;-70
2022/03/31 00:35:38;;;;;;;10.53;6.40;;;;;7.20;99541.00;;;;5041998;28;20236;-71
2022/03/31 00:38:24;;;;;;;15.77;7.00;;;;;7.30;99537.00;;;;5044889;28;20228;-69
2022/03/31 00:41:10;;;;;;;13.13;6.93;;;;;7.00;99539.00;;;;5043675;28;20331;-65
2022/03/31 00:43:57;;;;;;;13.83;6.43;;;;;7.00;99542.00;;;;5032282;28;20228;-68
2022/03/31 00:46:47;;;;;;;15.23;6.70;;;;;7.00;99538.00;;;;5041699;28;20241;-68
2022/03/31 00:49:35;;;;;;;15.33;7.27;;;;;7.10;99539.00;;;;5045420;28;20291;-69
2022/03/31 00:52:21;;;;;;;16.50;6.67;;;;;7.00;99529.00;;;;5046154;28;20244;-63
2022/03/31 00:55:09;;;;;;;17.07;7.53;;;;;7.00;99521.00;;;;5040065;28;20231;-70
2022/03/31 00:57:55;;;;;;;15.53;7.03;;;;;6.90;99521.00;;;;5032350;28;20271;-69
2022/03/31 01:00:42;;;;;;;11.47;6.57;;;;;7.00;99504.00;;;;5044926;28;20435;-68
2022/03/31 01:03:28;;;;;;;13.57;6.13;;;;;6.90;99514.00;;;;5045717;28;20315;-69
2022/03/31 01:06:16;;;;;;;12.30;6.47;;;;;6.80;99508.00;;;;5041363;28;21002;-67
2022/03/31 01:09:03;;;;;;;12.63;6.53;;;;;6.90;99507.00;;;;5033175;28;20233;-69
2022/03/31 01:11:49;;;;;;;16.83;7.23;;;;;7.00;99505.00;;;;5045428;28;20279;-67
2022/03/31 01:14:36;;;;;;;10.07;6.07;;;;;6.80;99492.00;;;;5045522;28;20332;-69
2022/03/31 01:17:22;;;;;;;16.03;6.90;;;;;6.70;99499.00;;;;5034987;28;20797;-67
2022/03/31 01:20:11;;;;;;;13.50;7.10;;;;;6.60;99493.00;;;;5018845;28;20365;-71
2022/03/31 01:22:59;;;;;;;11.47;6.83;;;;;6.80;99489.00;;;;5017184;28;20593;-71
2022/03/31 01:25:47;;;;;;;12.83;6.97;;;;;6.70;99483.00;;;;5023219;28;20279;-70
2022/03/31 01:28:35;;;;;;;14.60;6.53;;;;;6.70;99488.00;;;;5019625;28;20339;-67
2022/03/31 01:31:22;;;;;;;16.00;7.10;;;;;6.70;99490.00;;;;5017009;28;20281;-73
2022/03/31 01:34:09;;;;;;;17.10;7.03;;;;;6.70;99480.00;;;;5017175;28;20226;-68
2022/03/31 01:36:56;;;;;;;12.33;6.87;;;;;6.70;99491.00;;;;5019269;28;20244;-71
2022/03/31 01:39:42;;;;;;;11.53;7.23;;;;;6.70;99493.00;;;;5034791;28;20279;-69
2022/03/31 01:42:31;;;;;;;12.63;6.67;;;;;6.70;99494.00;;;;5044974;28;20264;-66
2022/03/31 01:45:18;;;;;;;17.83;7.73;;;;;6.60;99491.00;;;;5044996;28;20233;-69
2022/03/31 01:48:05;;;;;;;14.07;6.70;;;;;6.60;99486.00;;;;5035725;28;20275;-68
2022/03/31 01:50:53;;;;;;;16.07;6.97;;;;;6.60;99479.00;;;;5028777;28;20244;-69
2022/03/31 01:53:40;;;;;;;12.77;6.90;;;;;6.50;99483.00;;;;5042340;28;20356;-69
2022/03/31 01:56:26;;;;;;;14.80;6.70;;;;;6.50;99480.00;;;;5044686;28;20236;-68
2022/03/31 01:59:14;;;;;;;16.20;7.33;;;;;6.50;99475.00;;;;5030520;28;20313;-68
2022/03/31 02:02:00;;;;;;;14.43;7.43;;;;;6.40;99472.00;;;;5030362;28;20302;-67
2022/03/31 02:04:47;;;;;;;16.23;8.23;;;;;6.60;99473.00;;;;5044265;28;20252;-69
2022/03/31 02:07:34;;;;;;;12.30;6.70;;;;;6.50;99468.00;;;;5042952;28;20314;-68
2022/03/31 02:10:20;;;;;;;15.63;6.63;;;;;6.50;99471.00;;;;5042550;28;20263;-68
2022/03/31 02:13:07;;;;;;;17.83;7.70;;;;;6.70;99472.00;;;;5030629;28;20237;-67
2022/03/31 02:15:55;;;;;;;15.37;7.13;;;;;6.60;99458.00;;;;5026583;28;20224;-68
2022/03/31 02:18:42;;;;;;;13.50;7.43;;;;;6.60;99458.00;;;;5034657;28;20288;-68
2022/03/31 02:21:28;;;;;;;18.30;7.23;;;;;6.50;99454.00;;;;5037621;28;20233;-72
2022/03/31 02:24:15;;;;;;;13.23;6.43;;;;;6.50;99439.00;;;;5034030;28;20306;-72
2022/03/31 02:27:02;;;;;;;13.27;6.77;;;;;6.30;99447.00;;;;5023580;28;20223;-69
2022/03/31 02:29:48;;;;;;;15.23;6.87;;;;;6.40;99441.00;;;;5030916;28;20237;-70
2022/03/31 02:32:37;;;;;;;15.07;7.40;;;;;6.20;99395.00;;;;5036488;28;20242;-69
2022/03/31 02:35:24;;;;;;;16.10;7.67;;;;;6.30;99441.00;;;;5039026;28;20247;-65
2022/03/31 02:38:10;;;;;;;15.80;6.70;;;;;6.40;99434.00;;;;5023354;28;20602;-72
2022/03/31 02:40:57;;;;;;;18.30;7.87;;;;;6.30;99420.00;;;;5026572;28;20236;-68
2022/03/31 02:43:44;;;;;;;15.60;6.80;;;;;6.30;99436.00;;;;5042544;28;20231;-66
2022/03/31 02:46:31;;;;;;;12.57;7.30;;;;;6.30;99433.00;;;;5037332;28;20794;-68
2022/03/31 02:49:19;;;;;;;18.37;7.67;;;;;6.30;99427.00;;;;5043673;28;20240;-69
2022/03/31 02:52:06;;;;;;;15.30;7.70;;;;;6.30;99426.00;;;;5030677;28;20240;-69
2022/03/31 02:58:00;;;;;;;19.57;7.93;;;;;6.20;99416.00;;;;5043885;28;20254;-65
2022/03/31 03:00:48;;;;;;;14.77;7.30;;;;;6.20;99418.00;;;;5043194;28;20694;-67
2022/03/31 03:03:35;;;;;;;14.70;7.13;;;;;6.10;99417.00;;;;5040817;28;20240;-70
2022/03/31 03:06:23;;;;;;;13.57;7.57;;;;;6.10;99416.00;;;;5043001;28;20275;-64
2022/03/31 03:09:09;;;;;;;16.20;7.70;;;;;6.00;99416.00;;;;5036087;28;20236;-70
2022/03/31 03:11:56;;;;;;;17.73;8.20;;;;;6.00;99413.00;;;;5027079;28;20364;-68
2022/03/31 03:14:42;;;;;;;16.73;8.13;;;;;6.10;99411.00;;;;5034068;28;20255;-70
2022/03/31 03:17:29;;;;;;;12.30;6.87;;;;;6.00;99419.00;;;;5043408;28;20252;-69
2022/03/31 03:20:16;;;;;;;18.63;7.97;;;;;6.10;99410.00;;;;5032107;28;20713;-67
2022/03/31 03:23:04;;;;;;;15.63;7.43;;;;;6.10;99412.00;;;;5034135;28;20224;-68
2022/03/31 03:25:50;;;;;;;14.87;7.70;;;;;6.10;99417.00;;;;5041616;28;20240;-69
2022/03/31 03:28:37;;;;;;;15.27;7.67;;;;;6.10;99398.00;;;;5043052;28;20248;-69
2022/03/31 03:31:23;;;;;;;16.03;8.30;;;;;6.10;99414.00;;;;5043443;28;20229;-70
2022/03/31 03:34:09;;;;;;;18.53;8.70;;;;;6.10;99411.00;;;;5031242;28;20979;-69
2022/03/31 03:36:56;;;;;;;16.37;8.00;;;;;6.20;99416.00;;;;5034195;28;20228;-68
2022/03/31 03:39:44;;;;;;;18.47;7.57;;;;;6.20;99405.00;;;;5042939;28;20721;-67
2022/03/31 03:42:31;;;;;;;19.53;8.47;;;;;6.30;99400.00;;;;5043192;28;20232;-68
2022/03/31 03:45:17;;;;;;;19.23;7.67;;;;;6.20;99409.00;;;;5032687;28;20878;-69
2022/03/31 03:48:03;;;;;;;15.77;7.63;;;;;6.10;99401.00;;;;5028738;28;20229;-70
2022/03/31 03:50:50;;;;;;;22.53;8.60;;;;;6.10;99406.00;;;;5043057;28;20327;-69
2022/03/31 03:53:36;;;;;;;16.57;7.77;;;;;6.20;99411.00;;;;5043407;28;20239;-69
2022/03/31 03:56:24;;;;;;;21.57;8.70;;;;;6.00;99397.00;;;;5043472;28;20224;-68
2022/03/31 03:59:10;;;;;;;16.97;7.17;;;;;6.00;99390.00;;;;5026310;28;20232;-69
2022/03/31 04:01:59;;;;;;;15.90;8.47;;;;;5.90;99402.00;;;;5043027;28;20232;-68
2022/03/31 04:04:45;;;;;;;17.47;8.40;;;;;5.90;99407.00;;;;5043160;28;20248;-69
2022/03/31 04:07:32;;;;;;;15.90;8.40;;;;;5.90;99390.00;;;;5043221;28;20286;-69
2022/03/31 04:10:18;;;;;;;17.23;7.93;;;;;5.90;99399.00;;;;5036285;28;20235;-68
2022/03/31 04:13:06;;;;;;;16.17;7.93;;;;;5.90;99393.00;;;;5028619;28;20236;-69
2022/03/31 04:15:52;;;;;;;16.07;8.53;;;;;5.80;99391.00;;;;5042975;28;20705;-69
2022/03/31 04:18:38;;;;;;;14.97;7.63;;;;;5.90;99400.00;;;;5044087;28;20237;-70
2022/03/31 04:21:25;;;;;;;17.90;8.57;;;;;5.90;99397.00;;;;5042070;28;20670;-69
2022/03/31 04:24:11;;;;;;;18.10;8.43;;;;;5.90;99389.00;;;;5033944;28;20701;-67
2022/03/31 04:26:58;;;;;;;21.07;8.23;;;;;5.90;99396.00;;;;5044900;28;20283;-67
2022/03/31 04:29:46;;;;;;;17.13;8.23;;;;;5.80;99387.00;;;;5046226;28;20606;-67
2022/03/31 04:32:32;;;;;;;12.57;7.50;;;;;5.70;99390.00;;;;5046540;28;20247;-70
2022/03/31 04:35:18;;;;;;;16.87;8.63;;;;;5.60;99398.00;;;;5034836;28;20228;-69
2022/03/31 04:38:05;;;;;;;15.73;8.23;;;;;5.80;99390.00;;;;5031539;28;20772;-68
2022/03/31 04:40:52;;;;;;;17.97;7.83;;;;;5.80;99401.00;;;;5045155;28;20233;-69
2022/03/31 04:43:38;;;;;;;15.17;7.43;;;;;5.60;99395.00;;;;5046296;28;20739;-68
2022/03/31 04:46:26;;;;;;;12.97;7.37;;;;;5.70;99388.00;;;;5046042;28;20291;-69
2022/03/31 04:49:13;;;;;;;18.87;6.83;;;;;5.70;99396.00;;;;5034016;28;20248;-68
2022/03/31 04:51:59;;;;;;;15.90;8.33;;;;;5.60;99399.00;;;;5046527;28;20231;-68
2022/03/31 04:54:45;;;;;;;19.43;9.57;;;;;5.70;99398.00;;;;5036949;28;20816;-68
2022/03/31 04:57:31;;;;;;;21.37;8.67;;;;;5.70;99399.00;;;;5047252;28;20240;-70
2022/03/31 05:00:18;;;;;;;18.93;9.17;;;;;5.60;99394.00;;;;5035285;28;20303;-68
2022/03/31 05:03:05;;;;;;;15.20;7.63;;;;;5.60;99397.00;;;;5031149;28;20220;-69
2022/03/31 05:05:51;;;;;;;17.50;7.90;;;;;5.60;99398.00;;;;5043354;28;20228;-69
2022/03/31 05:08:38;;;;;;;17.90;8.13;;;;;5.70;99384.00;;;;5046996;28;20235;-70
2022/03/31 05:11:24;;;;;;;15.70;7.20;;;;;5.60;99393.00;;;;5048020;28;20259;-72
2022/03/31 05:14:10;;;;;;;18.47;7.97;;;;;5.50;99392.00;;;;5033725;28;20256;-68
2022/03/31 05:16:58;;;;;;;19.90;7.80;;;;;5.50;99389.00;;;;5046526;28;20348;-67
2022/03/31 05:19:46;;;;;;;15.20;7.80;;;;;5.60;99384.00;;;;5046208;28;20355;-71
2022/03/31 05:22:33;;;;;;;15.70;7.80;;;;;5.60;99385.00;;;;5042730;28;20233;-69
2022/03/31 05:25:19;;;;;;;13.70;7.50;;;;;5.60;99394.00;;;;5037132;28;20251;-69
2022/03/31 05:28:06;;;;;;;13.47;7.07;;;;;5.50;99374.00;;;;5047820;28;20232;-70
2022/03/31 05:30:53;;;;;;;15.60;7.63;;;;;5.50;99389.00;;;;5046038;28;20245;-70
2022/03/31 05:33:45;;;;;;;16.70;7.37;;;;;5.50;99388.00;;;;5047503;28;20249;-73
2022/03/31 05:36:33;;;;;;;13.27;7.90;;;;;5.50;99328.00;;;;5045656;28;20236;-68
2022/03/31 05:39:19;;;;;;;17.73;8.03;;;;;5.40;99388.00;;;;5029840;28;20288;-70
2022/03/31 05:42:06;;;;;;;14.50;7.13;;;;;5.40;99389.00;;;;5022408;28;20275;-69
2022/03/31 05:44:53;;;;;;;14.77;7.07;;;;;5.40;99379.00;;;;5026330;28;20299;-68
2022/03/31 05:47:40;;;;;;;17.33;8.43;;;;;5.50;99391.00;;;;5041775;28;20235;-67
2022/03/31 05:50:27;;;;;;;14.80;8.03;;;;;5.50;99392.00;;;;5040883;28;20236;-71
2022/03/31 05:53:15;;;;;;;14.40;7.67;;;;;5.50;99392.00;;;;5022881;28;20240;-69
2022/03/31 05:56:01;;;;;;;16.37;8.23;;;;;5.40;99388.00;;;;5023992;28;20224;-68
2022/03/31 05:58:49;;;;;;;15.67;8.80;;;;;5.50;99385.00;;;;5033779;28;20229;-69
2022/03/31 06:01:35;;;;;;;17.03;7.83;;;;;5.70;99383.00;;;;5047261;28;20275;-66
2022/03/31 06:04:22;;;;;;;15.40;8.67;;;;;5.60;99384.00;;;;5047973;28;20696;-68
2022/03/31 06:07:08;;;;;;;12.83;7.33;;;;;5.60;99384.00;;;;5010816;28;20288;-67
2022/03/31 06:09:56;;;;;;;17.67;8.83;;;;;5.60;99383.00;;;;5019549;28;20236;-68
2022/03/31 06:12:42;;;;;;;16.40;8.17;;;;;5.70;99386.00;;;;5026028;28;20761;-70
2022/03/31 06:15:29;;;;;;;15.17;7.40;;;;;5.80;99385.00;;;;5047324;28;20236;-71
2022/03/31 06:18:15;;;;;;;16.17;8.07;;;;;5.70;99387.00;;;;5031853;28;20231;-69
2022/03/31 06:21:02;;;;;;;15.47;7.73;;;;;5.70;99388.00;;;;5045645;28;20327;-68
2022/03/31 06:23:48;;;;;;;16.20;7.97;;;;;5.70;99381.00;;;;5044096;28;20236;-69
2022/03/31 06:26:36;;;;;;;17.03;8.37;;;;;5.70;99383.00;;;;5048069;28;20423;-68
2022/03/31 06:29:22;;;;;;;21.73;8.73;;;;;5.70;99393.00;;;;5035584;28;20252;-67
2022/03/31 06:32:12;;;;;;;16.60;8.80;;;;;5.70;99388.00;;;;5043061;28;20864;-68
2022/03/31 06:35:00;;;;;;;11.93;7.53;;;;;5.80;99394.00;;;;5045252;28;20371;-68
2022/03/31 06:37:47;;;;;;;14.77;8.07;;;;;5.80;99395.00;;;;5036695;28;20752;-69
2022/03/31 06:40:37;;;;;;;13.23;7.70;;;;;5.60;99388.00;;;;5044773;28;20287;-68
2022/03/31 06:43:25;;;;;;;16.33;7.87;;;;;5.60;99387.00;;;;5032605;28;20707;-67
2022/03/31 06:46:12;;;;;;;16.13;7.87;;;;;5.70;99388.00;;;;5031403;28;20356;-67
2022/03/31 06:48:58;;;;;;;18.03;8.73;;;;;5.80;99381.00;;;;5047042;28;20287;-66
2022/03/31 06:51:46;;;;;;;24.87;9.73;;;;;5.70;99379.00;;;;5040834;28;20248;-65
2022/03/31 06:54:32;;;;;;;15.77;8.30;;;;;5.80;99377.00;;;;5045657;28;20229;-67
2022/03/31 06:57:19;;;;;;;16.33;8.60;;;;;5.90;99376.00;;;;5028669;28;20229;-69
2022/03/31 07:00:08;;;;;;;16.10;8.03;;;;;5.80;99382.00;;;;5027556;28;20236;-67
2022/03/31 07:02:55;;;;;;;17.73;9.00;;;;;5.80;99385.00;;;;5053797;28;20240;-73
2022/03/31 07:05:42;;;;;;;14.93;9.20;;;;;5.80;99383.00;;;;5059762;28;20240;-71
2022/03/31 07:08:28;;;;;;;19.00;9.20;;;;;5.90;99392.00;;;;5068451;28;20255;-71
2022/03/31 07:11:14;;;;;;;13.80;8.77;;;;;6.00;99387.00;;;;5055243;28;20443;-68
2022/03/31 07:14:01;;;;;;;13.27;8.53;;;;;5.90;99370.00;;;;5066073;28;20238;-71
2022/03/31 07:16:49;;;;;;;19.07;9.50;;;;;6.00;99389.00;;;;5067007;28;20231;-70
2022/03/31 07:19:35;;;;;;;17.33;8.77;;;;;6.10;99391.00;;;;5064608;28;20303;-69
2022/03/31 07:22:22;;;;;;;17.87;8.33;;;;;6.10;99391.00;;;;5059552;28;20251;-68
2022/03/31 07:25:09;;;;;;;18.00;9.17;;;;;6.10;99398.00;;;;5067081;28;20724;-69
2022/03/31 07:27:56;;;;;;;17.43;9.73;;;;;6.10;99388.00;;;;5063548;28;20255;-70
2022/03/31 07:30:43;;;;;;;19.17;10.90;;;;;5.90;99392.00;;;;5044601;28;20378;-68
2022/03/31 07:33:30;;;;;;;17.13;10.03;;;;;6.10;99387.00;;;;5032567;28;20227;-69
2022/03/31 07:36:17;;;;;;;17.50;9.87;;;;;6.10;99388.00;;;;5025598;28;20243;-69
2022/03/31 07:39:04;;;;;;;19.00;9.23;;;;;6.20;99358.00;;;;5042933;28;20232;-70
2022/03/31 07:41:50;;;;;;;20.63;10.37;;;;;6.20;99381.00;;;;5032984;28;20816;-70
2022/03/31 07:44:37;;;;;;;19.57;8.90;;;;;6.30;99382.00;;;;5044017;28;20239;-68
2022/03/31 07:47:23;;;;;;;20.00;9.50;;;;;6.20;99381.00;;;;5031079;28;20720;-67
2022/03/31 07:50:13;;;;;;;20.80;10.27;;;;;6.40;99380.00;;;;5032474;28;20332;-67
2022/03/31 07:53:00;;;;;;;19.70;10.77;;;;;6.40;99373.00;;;;5010263;28;20679;-71
2022/03/31 07:55:46;;;;;;;21.97;10.90;;;;;6.50;99380.00;;;;5009063;28;20882;-67
2022/03/31 07:58:33;;;;;;;19.60;11.53;;;;;6.50;99358.00;;;;5008988;28;20230;-70
2022/03/31 08:01:19;;;;;;;27.30;12.73;;;;;6.60;99369.00;;;;5011959;28;20230;-67
2022/03/31 08:04:06;;;;;;;21.57;10.80;;;;;6.50;99364.00;;;;5013111;28;20233;-68
2022/03/31 08:06:54;;;;;;;18.30;9.93;;;;;6.40;99367.00;;;;5013927;28;20600;-68
2022/03/31 08:09:41;;;;;;;17.97;8.90;;;;;6.60;99367.00;;;;5023912;28;20332;-67
2022/03/31 08:12:27;;;;;;;21.43;10.73;;;;;6.70;99367.00;;;;5019038;28;20345;-71
2022/03/31 08:15:16;;;;;;;16.07;9.43;;;;;6.70;99356.00;;;;5046823;28;20223;-70
2022/03/31 08:18:02;;;;;;;19.87;10.90;;;;;6.80;99360.00;;;;5017148;28;20234;-68
2022/03/31 08:20:49;;;;;;;19.30;9.47;;;;;6.80;99353.00;;;;5016990;28;20973;-67
2022/03/31 08:23:38;;;;;;;23.37;12.03;;;;;7.00;99360.00;;;;5038396;28;20232;-67
2022/03/31 08:26:25;;;;;;;18.60;9.40;;;;;7.10;99355.00;;;;5016859;28;20226;-66
2022/03/31 08:29:12;;;;;;;17.50;10.00;;;;;7.00;99340.00;;;;5046848;28;20301;-67
2022/03/31 08:32:01;;;;;;;16.37;9.30;;;;;7.10;99361.00;;;;5046721;28;20376;-69
2022/03/31 08:34:47;;;;;;;18.67;10.70;;;;;7.20;99363.00;;;;5047071;28;20228;-68
2022/03/31 08:37:34;;;;;;;19.77;10.10;;;;;7.20;99362.00;;;;5041394;28;20217;-66
2022/03/31 08:40:22;;;;;;;21.23;10.33;;;;;7.10;99357.00;;;;5015645;28;20228;-67
2022/03/31 08:43:09;;;;;;;19.80;11.10;;;;;7.10;99365.00;;;;5017224;28;20240;-68
2022/03/31 08:45:57;;;;;;;22.77;12.13;;;;;7.20;99369.00;;;;5006393;28;20296;-66
2022/03/31 08:48:44;;;;;;;20.53;10.93;;;;;7.10;99368.00;;;;5012150;28;20237;-65
2022/03/31 08:51:30;;;;;;;18.73;9.57;;;;;7.10;99367.00;;;;5008257;28;20238;-67
2022/03/31 08:54:17;;;;;;;21.30;10.33;;;;;7.20;99359.00;;;;5012363;28;20354;-66
2022/03/31 08:57:05;;;;;;;22.17;9.73;;;;;7.10;99365.00;;;;5020810;28;20276;-67
2022/03/31 09:00:14;;;;;;;21.27;10.73;;;;;7.30;99374.00;;;;5015799;28;20232;-66
2022/03/31 09:03:03;;;;;;;16.27;9.93;;;;;7.10;99359.00;;;;5022913;28;20248;-67
2022/03/31 09:05:52;;;;;;;19.33;10.57;;;;;7.10;99368.00;;;;5017866;28;20658;-66
2022/03/31 09:08:38;;;;;;;21.93;10.03;;;;;7.10;99373.00;;;;5019341;28;20252;-67
2022/03/31 09:11:28;;;;;;;19.20;10.00;;;;;7.30;99371.00;;;;5018291;28;20236;-68
2022/03/31 09:14:30;;;;;;;20.00;9.50;;;;;7.10;99377.00;;;;5012492;28;20283;-66
2022/03/31 09:17:18;;;;;;;17.67;8.63;;;;;7.10;99373.00;;;;5010927;28;20230;-68
2022/03/31 09:20:05;;;;;;;18.93;8.27;;;;;7.00;99374.00;;;;5016875;28;20273;-66
2022/03/31 09:22:52;;;;;;;19.37;8.70;;;;;6.80;99384.00;;;;5022014;28;20288;-68
2022/03/31 09:25:38;;;;;;;17.13;8.20;;;;;6.90;99384.00;;;;5024777;28;20243;-66
2022/03/31 09:28:25;;;;;;;19.03;8.00;;;;;6.90;99376.00;;;;5017869;28;20223;-67
2022/03/31 09:31:14;;;;;;;16.63;6.97;;;;;7.20;99381.00;;;;5017436;28;20248;-67
2022/03/31 09:34:00;;;;;;;14.57;8.03;;;;;7.30;99384.00;;;;5019768;28;20229;-67
2022/03/31 09:36:50;;;;;;;14.37;7.23;;;;;7.30;99379.00;;;;5016916;28;20779;-66
2022/03/31 09:39:37;;;;;;;17.10;7.87;;;;;7.30;99382.00;;;;5017446;28;20245;-67
2022/03/31 09:42:23;;;;;;;16.37;7.27;;;;;7.30;99382.00;;;;5032990;28;20904;-66
2022/03/31 09:45:10;;;;;;;15.93;7.03;;;;;7.20;99385.00;;;;5045274;28;20248;-69
2022/03/31 09:47:59;;;;;;;18.40;7.87;;;;;7.30;99379.00;;;;5045114;28;20624;-67
2022/03/31 09:50:46;;;;;;;18.13;8.00;;;;;7.40;99383.00;;;;5042928;28;20307;-68
2022/03/31 09:53:33;;;;;;;16.33;7.83;;;;;7.40;99375.00;;;;5027739;28;20287;-69
2022/03/31 09:56:20;;;;;;;17.70;8.90;;;;;7.50;99371.00;;;;5029590;28;20359;-68
2022/03/31 09:59:08;;;;;;;17.80;8.30;;;;;7.40;99375.00;;;;5044651;28;20739;-65
2022/03/31 10:01:55;;;;;;;18.97;8.83;;;;;7.50;99369.00;;;;5045476;28;20236;-65
2022/03/31 10:04:46;;;;;;;16.60;8.13;;;;;7.70;99376.00;;;;5044841;28;20593;-65
2022/03/31 10:07:33;;;;;;;17.30;8.40;;;;;7.80;99375.00;;;;5032238;28;20315;-66
2022/03/31 10:10:19;;;;;;;18.80;8.30;;;;;7.80;99369.00;;;;5028395;28;20675;-67
2022/03/31 10:13:13;;;;;;;17.00;8.23;;;;;7.80;99373.00;;;;5041131;28;20264;-67
2022/03/31 10:16:04;;;;;;;19.30;8.70;;;;;7.80;99383.00;;;;5040106;28;20991;-68
2022/03/31 10:18:50;;;;;;;15.10;8.60;;;;;7.70;99367.00;;;;5015923;28;20246;-67
2022/03/31 10:21:38;;;;;;;25.60;12.27;;;;;7.80;99372.00;;;;5013318;28;20253;-69
2022/03/31 10:24:44;;;;;;;23.80;11.10;;;;;7.90;99363.00;;;;5007330;28;20366;-69
2022/03/31 10:27:32;;;;;;;19.30;8.87;;;;;8.10;99366.00;;;;5043994;28;20228;-68
2022/03/31 10:30:21;;;;;;;22.27;9.00;;;;;8.00;99361.00;;;;5043719;28;20748;-67
2022/03/31 10:33:09;;;;;;;21.27;9.77;;;;;8.10;99365.00;;;;5043823;28;20316;-69
2022/03/31 10:36:03;;;;;;;19.80;10.30;;;;;8.30;99365.00;;;;5038680;28;20276;-68
2022/03/31 10:38:55;;;;;;;24.80;11.53;;;;;8.30;99364.00;;;;5044017;28;20610;-67
2022/03/31 10:41:42;;;;;;;20.17;9.83;;;;;8.20;99352.00;;;;5030383;28;20248;-67
2022/03/31 10:44:29;;;;;;;20.93;10.17;;;;;8.10;99344.00;;;;5029358;28;20813;-68
2022/03/31 10:47:18;;;;;;;23.60;11.80;;;;;8.20;99338.00;;;;5044179;28;20298;-68
2022/03/31 10:50:07;;;;;;;26.67;10.63;;;;;8.20;99342.00;;;;5030339;28;20636;-69
2022/03/31 10:53:01;;;;;;;28.20;12.17;;;;;8.30;99337.00;;;;5016201;28;20822;-68
2022/03/31 10:55:55;;;;;;;21.83;10.50;;;;;8.30;99332.00;;;;5013231;28;20296;-68
2022/03/31 10:58:53;;;;;;;19.93;10.03;;;;;8.40;99339.00;;;;5023220;28;20701;-68
2022/03/31 11:01:40;;;;;;;20.23;10.63;;;;;8.30;99336.00;;;;5040924;28;20873;-68
2022/03/31 11:04:27;;;;;;;26.57;11.80;;;;;8.20;99329.00;;;;5008742;28;20219;-69
2022/03/31 11:07:22;;;;;;;22.73;11.13;;;;;8.30;99326.00;;;;5014504;28;20649;-69
2022/03/31 11:10:11;;;;;;;24.57;11.70;;;;;8.50;99325.00;;;;5008252;28;20699;-68
2022/03/31 11:12:59;;;;;;;25.27;10.33;;;;;8.80;99330.00;;;;5011195;28;20234;-70
2022/03/31 11:15:50;;;;;;;29.80;11.80;;;;;9.30;99331.00;;;;5013042;28;20865;-70
2022/03/31 11:18:36;;;;;;;22.03;11.13;;;;;9.30;99328.00;;;;5013815;28;20233;-68
2022/03/31 11:21:23;;;;;;;22.30;11.47;;;;;9.50;99327.00;;;;5010670;28;20693;-69
2022/03/31 11:24:11;;;;;;;25.97;11.67;;;;;9.90;99325.00;;;;5016917;28;20233;-70
2022/03/31 11:26:57;;;;;;;21.43;9.80;;;;;10.00;99320.00;;;;5015150;28;20233;-68
2022/03/31 11:29:45;;;;;;;22.47;11.20;;;;;10.00;99318.00;;;;5021552;28;20242;-68
2022/03/31 11:32:32;;;;;;;20.90;10.20;;;;;10.10;99309.00;;;;5022063;28;20614;-69
2022/03/31 11:35:21;;;;;;;20.20;10.27;;;;;10.10;99308.00;;;;5030874;28;20226;-68
2022/03/31 11:38:11;;;;;;;20.20;10.17;;;;;10.40;99309.00;;;;5022281;28;20364;-68
2022/03/31 11:40:58;;;;;;;21.60;10.30;;;;;10.00;99306.00;;;;5026461;28;20732;-69
2022/03/31 11:43:44;;;;;;;15.70;8.30;;;;;9.50;99305.00;;;;5015924;28;20242;-69
2022/03/31 11:46:40;;;;;;;21.73;9.63;;;;;9.50;99296.00;;;;5014737;28;20324;-68
2022/03/31 11:49:27;;;;;;;18.57;9.77;;;;;9.50;99288.00;;;;5021416;28;20231;-65
2022/03/31 11:52:14;;;;;;;19.07;9.30;;;;;9.60;99290.00;;;;5020939;28;20233;-66
2022/03/31 11:55:02;;;;;;;20.53;10.10;;;;;9.60;99293.00;;;;5021643;28;20233;-68
2022/03/31 11:57:53;;;;;;;18.13;9.10;;;;;9.70;99286.00;;;;5020405;28;20601;-68
2022/03/31 12:00:49;;;;;;;17.50;9.13;;;;;9.70;99291.00;;;;5015417;28;20348;-68
2022/03/31 12:03:38;;;;;;;17.43;9.67;;;;;9.60;99284.00;;;;5019876;28;20332;-70
2022/03/31 12:06:25;;;;;;;16.83;9.57;;;;;9.80;99288.00;;;;5021020;28;20255;-68
2022/03/31 12:09:12;;;;;;;19.67;10.00;;;;;9.80;99291.00;;;;5014467;28;20796;-68
2022/03/31 12:11:59;;;;;;;18.83;9.23;;;;;9.90;99289.00;;;;5039821;28;20241;-67
2022/03/31 12:14:57;;;;;;;16.97;8.77;;;;;9.60;99294.00;;;;5036284;28;20234;-70
2022/03/31 12:17:44;;;;;;;19.50;9.37;;;;;9.70;99286.00;;;;5000771;28;20236;-68
2022/03/31 12:20:33;;;;;;;17.83;8.80;;;;;9.50;99289.00;;;;5021171;28;20231;-69
2022/03/31 12:23:21;;;;;;;15.77;9.07;;;;;9.50;99286.00;;;;5044964;28;20318;-67
2022/03/31 12:26:12;;;;;;;17.90;9.57;;;;;9.30;99290.00;;;;5046463;28;20232;-70
2022/03/31 12:29:01;;;;;;;21.13;9.90;;;;;9.30;99289.00;;;;5046458;28;20230;-68
2022/03/31 12:31:48;;;;;;;14.90;7.90;;;;;9.20;99271.00;;;;5041092;28;20244;-67
2022/03/31 12:34:37;;;;;;;17.30;9.13;;;;;9.30;99236.00;;;;5032984;28;20245;-69
2022/03/31 12:37:29;;;;;;;17.00;9.00;;;;;9.20;99280.00;;;;5039850;28;20225;-67
2022/03/31 12:40:17;;;;;;;18.53;9.30;;;;;9.40;99282.00;;;;5045394;28;20237;-69
2022/03/31 12:43:03;;;;;;;19.13;9.63;;;;;9.40;99289.00;;;;5040089;28;20308;-65
2022/03/31 12:45:50;;;;;;;20.77;9.17;;;;;9.40;99284.00;;;;5032410;28;20809;-67
2022/03/31 12:48:36;;;;;;;19.53;9.00;;;;;9.30;99283.00;;;;5013241;28;20230;-67
2022/03/31 12:51:23;;;;;;;17.87;8.97;;;;;9.20;99278.00;;;;5017431;28;20251;-68
2022/03/31 12:54:23;;;;;;;16.33;8.47;;;;;9.20;99285.00;;;;5019637;28;20387;-67
2022/03/31 12:57:17;;;;;;;17.00;9.10;;;;;9.20;99283.00;;;;5019285;28;20895;-68
2022/03/31 13:00:07;;;;;;;17.70;7.77;;;;;8.90;99273.00;;;;5020204;28;20219;-66
2022/03/31 13:03:00;;;;;;;19.67;8.80;;;;;8.80;99290.00;;;;5020054;28;20231;-68
2022/03/31 13:05:46;;;;;;;20.90;8.63;;;;;8.70;99285.00;;;;5015852;28;20333;-68
2022/03/31 13:08:35;;;;;;;21.30;9.83;;;;;8.70;99286.00;;;;5019711;28;20264;-67
2022/03/31 13:11:23;;;;;;;20.57;9.30;;;;;8.90;99293.00;;;;5021329;28;20232;-66
2022/03/31 13:14:10;;;;;;;21.80;10.17;;;;;8.90;99287.00;;;;5020958;28;20261;-67
2022/03/31 13:16:56;;;;;;;26.00;10.43;;;;;8.90;99285.00;;;;5028784;28;20254;-69
2022/03/31 13:19:43;;;;;;;21.53;9.87;;;;;8.80;99286.00;;;;5037553;28;20238;-68
2022/03/31 13:22:30;;;;;;;22.70;8.70;;;;;8.90;99285.00;;;;5007928;28;20614;-68
2022/03/31 13:25:16;;;;;;;19.67;9.50;;;;;8.90;99285.00;;;;5010372;28;20246;-64
2022/03/31 13:28:05;;;;;;;20.53;9.87;;;;;8.90;99273.00;;;;5025628;28;20253;-67
2022/03/31 13:30:52;;;;;;;20.53;9.90;;;;;8.90;99283.00;;;;5045055;28;20328;-68
2022/03/31 13:33:39;;;;;;;22.13;10.60;;;;;9.20;99288.00;;;;5031761;28;20330;-68
2022/03/31 13:36:26;;;;;;;21.80;10.33;;;;;9.10;99274.00;;;;5032521;28;20232;-69
2022/03/31 13:39:15;;;;;;;24.70;10.60;;;;;9.00;99281.00;;;;5012622;28;20250;-68
2022/03/31 13:42:02;;;;;;;22.13;10.80;;;;;8.80;99282.00;;;;5033001;28;20241;-67
2022/03/31 13:44:55;;;;;;;28.50;11.33;;;;;8.80;99279.00;;;;5040103;28;20716;-68
2022/03/31 13:47:43;;;;;;;23.90;10.67;;;;;8.60;99260.00;;;;5032245;28;20236;-64
2022/03/31 13:50:29;;;;;;;24.70;10.60;;;;;8.50;99281.00;;;;5027870;28;20234;-71
2022/03/31 13:56:20;;;;;;;23.17;9.80;;;;;8.70;99281.00;;;;5043414;28;20230;-67
2022/03/31 14:02:15;;;;;;;25.73;11.87;;;;;8.70;99268.00;;;;5037566;28;20820;-69
2022/03/31 14:05:02;;;;;;;22.03;10.13;;;;;8.60;99265.00;;;;5045148;28;20377;-67
2022/03/31 14:07:49;;;;;;;26.90;11.27;;;;;8.80;99276.00;;;;5037476;28;20248;-69
2022/03/31 14:10:35;;;;;;;24.90;10.97;;;;;8.70;99281.00;;;;5021771;28;20241;-68
2022/03/31 14:13:22;;;;;;;24.33;11.23;;;;;8.80;99275.00;;;;5020551;28;20294;-65
2022/03/31 14:16:09;;;;;;;25.43;11.17;;;;;8.70;99275.00;;;;5014686;28;20739;-68
2022/03/31 14:18:58;;;;;;;27.60;11.63;;;;;8.80;99277.00;;;;5029846;28;20322;-69